sensor_id;sensor_type;location;lat;lon;timestamp;pressure;altitude;pressure_sealevel;temperature;humidity
64080;BME280;51042;49.696;10.808;2023-08-07T00:00:49;97736.66;;;11.75;100.00
64080;BME280;51042;49.696;10.808;2023-08-07T00:03:15;97739.41;;;11.75;100.00
64080;BME280;51042;49.696;10.808;2023-08-07T00:05:47;97735.44;;;11.76;100.00
64080;BME280;51042;49.696;10.808;2023-08-07T00:08:12;97734.22;;;11.77;100.00
64080;BME280;51042;49.696;10.808;2023-08-07T00:10:37;97738.66;;;11.74;100.00
64080;BME280;51042;49.696;10.808;2023-08-07T00:13:02;97743.38;;;11.74;100.00
64080;BME280;51042;49.696;10.808;2023-08-07T00:15:28;97739.09;;;11.73;100.00
64080;BME280;51042;49.696;10.808;2023-08-07T00:17:54;97753.63;;;11.73;100.00
64080;BME280;51042;49.696;10.808;2023-08-07T00:20:19;97749.19;;;11.76;100.00
64080;BME280;51042;49.696;10.808;2023-08-07T00:22:44;97748.44;;;11.75;100.00
64080;BME280;51042;49.696;10.808;2023-08-07T00:25:09;97731.16;;;11.75;100.00
64080;BME280;51042;49.696;10.808;2023-08-07T00:27:34;97748.88;;;11.74;100.00
64080;BME280;51042;49.696;10.808;2023-08-07T00:29:59;97756.69;;;11.75;100.00
64080;BME280;51042;49.696;10.808;2023-08-07T00:32:25;97741.53;;;11.71;100.00
64080;BME280;51042;49.696;10.808;2023-08-07T00:34:50;97755.28;;;11.71;100.00
64080;BME280;51042;49.696;10.808;2023-08-07T00:37:15;97751.75;;;11.70;100.00
64080;BME280;51042;49.696;10.808;2023-08-07T00:39:41;97752.53;;;11.71;100.00
64080;BME280;51042;49.696;10.808;2023-08-07T00:42:06;97760.47;;;11.69;100.00
64080;BME280;51042;49.696;10.808;2023-08-07T00:44:31;97746.44;;;11.67;100.00
64080;BME280;51042;49.696;10.808;2023-08-07T00:46:56;97756.66;;;11.66;100.00
64080;BME280;51042;49.696;10.808;2023-08-07T00:49:22;97747.19;;;11.67;100.00
64080;BME280;51042;49.696;10.808;2023-08-07T00:51:47;97752.06;;;11.63;100.00
64080;BME280;51042;49.696;10.808;2023-08-07T00:54:14;97772.06;;;11.64;100.00
64080;BME280;51042;49.696;10.808;2023-08-07T00:56:40;97767.34;;;11.64;100.00
64080;BME280;51042;49.696;10.808;2023-08-07T00:59:05;97751.28;;;11.63;100.00
64080;BME280;51042;49.696;10.808;2023-08-07T01:01:31;97773.75;;;11.61;100.00
64080;BME280;51042;49.696;10.808;2023-08-07T01:03:56;97771.47;;;11.60;100.00
64080;BME280;51042;49.696;10.808;2023-08-07T01:06:21;97766.41;;;11.58;100.00
64080;BME280;51042;49.696;10.808;2023-08-07T01:08:46;97772.69;;;11.59;100.00
64080;BME280;51042;49.696;10.808;2023-08-07T01:13:40;97776.63;;;11.58;100.00
64080;BME280;51042;49.696;10.808;2023-08-07T01:16:14;97780.91;;;11.59;100.00
64080;BME280;51042;49.696;10.808;2023-08-07T01:18:42;97784.88;;;11.58;100.00
64080;BME280;51042;49.696;10.808;2023-08-07T01:21:16;97784.44;;;11.59;100.00
64080;BME280;51042;49.696;10.808;2023-08-07T01:23:41;97786.88;;;11.57;100.00
64080;BME280;51042;49.696;10.808;2023-08-07T01:26:06;97797.09;;;11.57;100.00
64080;BME280;51042;49.696;10.808;2023-08-07T01:28:36;97793.91;;;11.58;100.00
64080;BME280;51042;49.696;10.808;2023-08-07T01:31:03;97799.06;;;11.56;100.00
64080;BME280;51042;49.696;10.808;2023-08-07T01:33:31;97799.06;;;11.56;100.00
64080;BME280;51042;49.696;10.808;2023-08-07T01:35:57;97794.34;;;11.57;100.00
64080;BME280;51042;49.696;10.808;2023-08-07T01:38:24;97798.00;;;11.54;100.00
64080;BME280;51042;49.696;10.808;2023-08-07T01:40:49;97802.75;;;11.53;100.00
64080;BME280;51042;49.696;10.808;2023-08-07T01:43:15;97800.16;;;11.50;100.00
64080;BME280;51042;49.696;10.808;2023-08-07T01:45:41;97804.13;;;11.49;100.00
64080;BME280;51042;49.696;10.808;2023-08-07T01:48:06;97815.56;;;11.47;100.00
64080;BME280;51042;49.696;10.808;2023-08-07T01:50:31;97816.00;;;11.45;100.00
64080;BME280;51042;49.696;10.808;2023-08-07T01:52:57;97817.97;;;11.45;100.00
64080;BME280;51042;49.696;10.808;2023-08-07T01:55:23;97823.97;;;11.43;100.00
64080;BME280;51042;49.696;10.808;2023-08-07T01:57:48;97826.38;;;11.41;100.00
64080;BME280;51042;49.696;10.808;2023-08-07T02:00:13;97831.44;;;11.43;100.00
64080;BME280;51042;49.696;10.808;2023-08-07T02:02:38;97837.38;;;11.41;100.00
64080;BME280;51042;49.696;10.808;2023-08-07T02:05:03;97830.78;;;11.39;100.00
64080;BME280;51042;49.696;10.808;2023-08-07T02:07:29;97834.00;;;11.37;100.00
64080;BME280;51042;49.696;10.808;2023-08-07T02:09:54;97836.75;;;11.37;100.00
64080;BME280;51042;49.696;10.808;2023-08-07T02:12:19;97840.41;;;11.34;100.00
64080;BME280;51042;49.696;10.808;2023-08-07T02:14:45;97846.66;;;11.35;100.00
64080;BME280;51042;49.696;10.808;2023-08-07T02:17:10;97846.34;;;11.33;100.00
64080;BME280;51042;49.696;10.808;2023-08-07T02:19:35;97844.06;;;11.31;100.00
64080;BME280;51042;49.696;10.808;2023-08-07T02:22:01;97844.06;;;11.31;100.00
64080;BME280;51042;49.696;10.808;2023-08-07T02:24:26;97845.91;;;11.34;100.00
64080;BME280;51042;49.696;10.808;2023-08-07T02:26:51;97856.56;;;11.32;100.00
64080;BME280;51042;49.696;10.808;2023-08-07T02:29:16;97837.47;;;11.29;100.00
64080;BME280;51042;49.696;10.808;2023-08-07T02:31:41;97859.47;;;11.29;100.00
64080;BME280;51042;49.696;10.808;2023-08-07T02:34:06;97855.19;;;11.28;100.00
64080;BME280;51042;49.696;10.808;2023-08-07T02:36:32;97857.16;;;11.27;100.00
64080;BME280;51042;49.696;10.808;2023-08-07T02:38:57;97858.38;;;11.26;100.00
64080;BME280;51042;49.696;10.808;2023-08-07T02:41:22;97855.34;;;11.24;100.00
64080;BME280;51042;49.696;10.808;2023-08-07T02:43:47;97855.00;;;11.22;100.00
64080;BME280;51042;49.696;10.808;2023-08-07T02:46:12;97864.78;;;11.23;100.00
64080;BME280;51042;49.696;10.808;2023-08-07T02:48:37;97873.78;;;11.24;100.00
64080;BME280;51042;49.696;10.808;2023-08-07T02:51:04;97863.69;;;11.21;100.00
64080;BME280;51042;49.696;10.808;2023-08-07T02:53:29;97871.63;;;11.19;100.00
64080;BME280;51042;49.696;10.808;2023-08-07T02:55:54;97874.69;;;11.21;100.00
64080;BME280;51042;49.696;10.808;2023-08-07T02:58:19;97867.69;;;11.20;100.00
64080;BME280;51042;49.696;10.808;2023-08-07T03:00:45;97861.41;;;11.19;100.00
64080;BME280;51042;49.696;10.808;2023-08-07T03:03:10;97866.16;;;11.19;100.00
64080;BME280;51042;49.696;10.808;2023-08-07T03:05:35;97877.91;;;11.19;100.00
64080;BME280;51042;49.696;10.808;2023-08-07T03:08:00;97877.13;;;11.19;100.00
64080;BME280;51042;49.696;10.808;2023-08-07T03:10:25;97866.59;;;11.17;100.00
64080;BME280;51042;49.696;10.808;2023-08-07T03:12:50;97878.03;;;11.16;100.00
64080;BME280;51042;49.696;10.808;2023-08-07T03:15:16;97884.72;;;11.15;100.00
64080;BME280;51042;49.696;10.808;2023-08-07T03:17:41;97887.47;;;11.15;100.00
64080;BME280;51042;49.696;10.808;2023-08-07T03:20:06;97890.69;;;11.13;100.00
64080;BME280;51042;49.696;10.808;2023-08-07T03:22:31;97896.19;;;11.13;100.00
64080;BME280;51042;49.696;10.808;2023-08-07T03:24:57;97892.34;;;11.11;100.00
64080;BME280;51042;49.696;10.808;2023-08-07T03:27:22;97895.53;;;11.09;100.00
64080;BME280;51042;49.696;10.808;2023-08-07T03:29:47;97904.84;;;11.12;100.00
64080;BME280;51042;49.696;10.808;2023-08-07T03:32:12;97898.59;;;11.11;100.00
64080;BME280;51042;49.696;10.808;2023-08-07T03:34:37;97912.78;;;11.10;100.00
64080;BME280;51042;49.696;10.808;2023-08-07T03:37:03;97909.72;;;11.08;100.00
64080;BME280;51042;49.696;10.808;2023-08-07T03:39:28;97912.00;;;11.09;100.00
64080;BME280;51042;49.696;10.808;2023-08-07T03:41:53;97913.97;;;11.09;100.00
64080;BME280;51042;49.696;10.808;2023-08-07T03:44:18;97920.72;;;11.08;100.00
64080;BME280;51042;49.696;10.808;2023-08-07T03:46:43;97919.63;;;11.05;100.00
64080;BME280;51042;49.696;10.808;2023-08-07T03:49:09;97925.56;;;11.03;100.00
64080;BME280;51042;49.696;10.808;2023-08-07T03:51:34;97928.31;;;11.03;100.00
64080;BME280;51042;49.696;10.808;2023-08-07T03:53:59;97924.03;;;11.02;100.00
64080;BME280;51042;49.696;10.808;2023-08-07T03:56:24;97935.00;;;11.02;100.00
64080;BME280;51042;49.696;10.808;2023-08-07T03:58:49;97935.47;;;11.01;100.00
64080;BME280;51042;49.696;10.808;2023-08-07T04:01:15;97945.69;;;11.00;100.00
64080;BME280;51042;49.696;10.808;2023-08-07T04:03:40;97940.50;;;11.02;100.00
64080;BME280;51042;49.696;10.808;2023-08-07T04:06:05;97952.25;;;11.03;100.00
64080;BME280;51042;49.696;10.808;2023-08-07T04:08:30;97950.41;;;11.00;100.00
64080;BME280;51042;49.696;10.808;2023-08-07T04:10:59;97949.97;;;11.01;100.00
64080;BME280;51042;49.696;10.808;2023-08-07T04:13:25;97955.47;;;11.01;100.00
64080;BME280;51042;49.696;10.808;2023-08-07T04:15:50;97951.94;;;11.01;100.00
64080;BME280;51042;49.696;10.808;2023-08-07T04:18:15;97960.94;;;11.01;100.00
64080;BME280;51042;49.696;10.808;2023-08-07T04:20:41;97949.63;;;10.99;100.00
64080;BME280;51042;49.696;10.808;2023-08-07T04:23:07;97954.69;;;11.01;100.00
64080;BME280;51042;49.696;10.808;2023-08-07T04:25:32;97953.91;;;11.00;100.00
64080;BME280;51042;49.696;10.808;2023-08-07T04:27:57;97955.91;;;11.00;100.00
64080;BME280;51042;49.696;10.808;2023-08-07T04:30:22;97952.06;;;10.97;100.00
64080;BME280;51042;49.696;10.808;2023-08-07T04:32:47;97959.53;;;10.97;100.00
64080;BME280;51042;49.696;10.808;2023-08-07T04:35:14;97967.00;;;10.96;100.00
64080;BME280;51042;49.696;10.808;2023-08-07T04:37:39;97973.72;;;10.95;100.00
64080;BME280;51042;49.696;10.808;2023-08-07T04:40:04;97960.75;;;10.96;100.00
64080;BME280;51042;49.696;10.808;2023-08-07T04:42:30;97969.00;;;10.96;100.00
64080;BME280;51042;49.696;10.808;2023-08-07T04:44:55;97973.59;;;10.99;100.00
64080;BME280;51042;49.696;10.808;2023-08-07T04:47:20;97975.88;;;11.00;100.00
64080;BME280;51042;49.696;10.808;2023-08-07T04:49:45;97974.69;;;11.01;100.00
64080;BME280;51042;49.696;10.808;2023-08-07T04:52:11;97980.59;;;11.00;100.00
64080;BME280;51042;49.696;10.808;2023-08-07T04:54:36;97982.16;;;11.01;100.00
64080;BME280;51042;49.696;10.808;2023-08-07T04:57:01;97977.44;;;11.01;100.00
64080;BME280;51042;49.696;10.808;2023-08-07T04:59:27;97973.44;;;11.02;100.00
64080;BME280;51042;49.696;10.808;2023-08-07T05:01:54;97981.69;;;11.02;100.00
64080;BME280;51042;49.696;10.808;2023-08-07T05:04:35;97983.22;;;11.03;100.00
64080;BME280;51042;49.696;10.808;2023-08-07T05:07:04;97985.19;;;11.03;100.00
64080;BME280;51042;49.696;10.808;2023-08-07T05:09:29;97990.81;;;10.99;100.00
64080;BME280;51042;49.696;10.808;2023-08-07T05:11:54;97992.03;;;10.98;100.00
64080;BME280;51042;49.696;10.808;2023-08-07T05:14:30;97985.78;;;10.98;100.00
64080;BME280;51042;49.696;10.808;2023-08-07T05:16:58;97991.25;;;10.98;100.00
64080;BME280;51042;49.696;10.808;2023-08-07T05:19:30;97990.81;;;10.99;100.00
64080;BME280;51042;49.696;10.808;2023-08-07T05:21:58;98002.13;;;11.01;100.00
64080;BME280;51042;49.696;10.808;2023-08-07T05:24:23;97998.28;;;10.99;100.00
64080;BME280;51042;49.696;10.808;2023-08-07T05:26:49;97997.84;;;11.00;100.00
64080;BME280;51042;49.696;10.808;2023-08-07T05:29:14;98005.94;;;11.04;100.00
64080;BME280;51042;49.696;10.808;2023-08-07T05:31:45;98002.44;;;11.03;100.00
64080;BME280;51042;49.696;10.808;2023-08-07T05:34:14;98014.19;;;11.04;100.00
64080;BME280;51042;49.696;10.808;2023-08-07T05:36:39;98007.94;;;11.03;100.00
64080;BME280;51042;49.696;10.808;2023-08-07T05:39:09;98013.59;;;11.09;100.00
64080;BME280;51042;49.696;10.808;2023-08-07T05:41:34;98017.59;;;11.08;100.00
64080;BME280;51042;49.696;10.808;2023-08-07T05:43:59;98012.97;;;11.05;100.00
64080;BME280;51042;49.696;10.808;2023-08-07T05:46:25;98020.44;;;11.04;100.00
64080;BME280;51042;49.696;10.808;2023-08-07T05:48:50;98021.66;;;11.03;100.00
64080;BME280;51042;49.696;10.808;2023-08-07T05:51:15;98022.44;;;11.04;100.00
64080;BME280;51042;49.696;10.808;2023-08-07T05:53:40;98026.72;;;11.05;100.00
64080;BME280;51042;49.696;10.808;2023-08-07T05:56:05;98020.00;;;11.06;100.00
64080;BME280;51042;49.696;10.808;2023-08-07T05:58:31;98033.09;;;11.02;100.00
64080;BME280;51042;49.696;10.808;2023-08-07T06:00:56;98036.16;;;11.04;100.00
64080;BME280;51042;49.696;10.808;2023-08-07T06:03:21;98028.34;;;11.02;100.00
64080;BME280;51042;49.696;10.808;2023-08-07T06:05:46;98035.38;;;11.03;100.00
64080;BME280;51042;49.696;10.808;2023-08-07T06:08:11;98034.50;;;11.07;100.00
64080;BME280;51042;49.696;10.808;2023-08-07T06:10:37;98041.84;;;11.10;100.00
64080;BME280;51042;49.696;10.808;2023-08-07T06:13:02;98034.56;;;11.16;100.00
64080;BME280;51042;49.696;10.808;2023-08-07T06:15:37;98042.59;;;11.10;100.00
64080;BME280;51042;49.696;10.808;2023-08-07T06:18:09;98037.00;;;11.14;100.00
64080;BME280;51042;49.696;10.808;2023-08-07T06:20:34;98041.72;;;11.13;100.00
64080;BME280;51042;49.696;10.808;2023-08-07T06:23:00;98049.50;;;11.15;100.00
64080;BME280;51042;49.696;10.808;2023-08-07T06:25:26;98044.66;;;11.19;100.00
64080;BME280;51042;49.696;10.808;2023-08-07T06:27:52;98052.13;;;11.18;100.00
64080;BME280;51042;49.696;10.808;2023-08-07T06:30:17;98053.66;;;11.19;100.00
64080;BME280;51042;49.696;10.808;2023-08-07T06:32:43;98058.41;;;11.19;100.00
64080;BME280;51042;49.696;10.808;2023-08-07T06:35:08;98061.72;;;11.14;100.00
64080;BME280;51042;49.696;10.808;2023-08-07T06:37:33;98057.44;;;11.13;100.00
64080;BME280;51042;49.696;10.808;2023-08-07T06:39:58;98059.41;;;11.12;100.00
64080;BME280;51042;49.696;10.808;2023-08-07T06:42:24;98061.38;;;11.12;100.00
64080;BME280;51042;49.696;10.808;2023-08-07T06:44:49;98063.03;;;11.09;100.00
64080;BME280;51042;49.696;10.808;2023-08-07T06:47:14;98062.16;;;11.12;100.00
64080;BME280;51042;49.696;10.808;2023-08-07T06:49:39;98066.88;;;11.12;100.00
64080;BME280;51042;49.696;10.808;2023-08-07T06:52:04;98068.63;;;11.18;100.00
64080;BME280;51042;49.696;10.808;2023-08-07T06:54:30;98080.47;;;11.15;100.00
64080;BME280;51042;49.696;10.808;2023-08-07T06:56:55;98081.44;;;11.21;100.00
64080;BME280;51042;49.696;10.808;2023-08-07T06:59:20;98070.63;;;11.27;100.00
64080;BME280;51042;49.696;10.808;2023-08-07T07:01:45;98085.13;;;11.27;100.00
64080;BME280;51042;49.696;10.808;2023-08-07T07:04:11;98090.53;;;11.31;100.00
64080;BME280;51042;49.696;10.808;2023-08-07T07:06:37;98081.38;;;11.34;100.00
64080;BME280;51042;49.696;10.808;2023-08-07T07:09:02;98086.88;;;11.34;100.00
64080;BME280;51042;49.696;10.808;2023-08-07T07:11:27;98095.13;;;11.34;100.00
64080;BME280;51042;49.696;10.808;2023-08-07T07:13:52;98091.28;;;11.31;100.00
64080;BME280;51042;49.696;10.808;2023-08-07T07:16:18;98082.59;;;11.33;100.00
64080;BME280;51042;49.696;10.808;2023-08-07T07:21:38;98091.97;;;11.44;100.00
64080;BME280;51042;49.696;10.808;2023-08-07T07:24:03;98102.47;;;11.59;100.00
64080;BME280;51042;49.696;10.808;2023-08-07T07:26:31;98106.47;;;11.67;100.00
64080;BME280;51042;49.696;10.808;2023-08-07T07:28:56;98107.25;;;11.67;100.00
64080;BME280;51042;49.696;10.808;2023-08-07T07:31:21;98108.09;;;11.77;100.00
64080;BME280;51042;49.696;10.808;2023-08-07T07:33:47;98108.44;;;11.88;100.00
64080;BME280;51042;49.696;10.808;2023-08-07T07:36:18;98121.94;;;11.95;100.00
64080;BME280;51042;49.696;10.808;2023-08-07T07:38:47;98113.69;;;11.95;100.00
64080;BME280;51042;49.696;10.808;2023-08-07T07:41:12;98119.38;;;12.01;100.00
64080;BME280;51042;49.696;10.808;2023-08-07T07:43:38;98128.06;;;11.99;100.00
64080;BME280;51042;49.696;10.808;2023-08-07T07:46:03;98137.13;;;12.09;100.00
64080;BME280;51042;49.696;10.808;2023-08-07T07:48:29;98133.91;;;12.10;100.00
64080;BME280;51042;49.696;10.808;2023-08-07T07:51:01;98132.50;;;11.97;100.00
64080;BME280;51042;49.696;10.808;2023-08-07T07:53:27;98129.16;;;12.02;100.00
64080;BME280;51042;49.696;10.808;2023-08-07T07:55:52;98141.88;;;12.08;100.00
64080;BME280;51042;49.696;10.808;2023-08-07T07:58:17;98143.09;;;12.07;100.00
64080;BME280;51042;49.696;10.808;2023-08-07T08:00:42;98147.66;;;12.10;100.00
64080;BME280;51042;49.696;10.808;2023-08-07T08:03:07;98143.00;;;12.20;100.00
64080;BME280;51042;49.696;10.808;2023-08-07T08:05:33;98145.66;;;12.33;100.00
64080;BME280;51042;49.696;10.808;2023-08-07T08:07:59;98153.78;;;12.45;100.00
64080;BME280;51042;49.696;10.808;2023-08-07T08:10:24;98150.13;;;12.39;100.00
64080;BME280;51042;49.696;10.808;2023-08-07T08:12:50;98161.38;;;12.32;100.00
64080;BME280;51042;49.696;10.808;2023-08-07T08:15:18;98164.44;;;12.34;100.00
64080;BME280;51042;49.696;10.808;2023-08-07T08:17:43;98166.16;;;12.41;100.00
64080;BME280;51042;49.696;10.808;2023-08-07T08:20:09;98165.22;;;12.35;100.00
64080;BME280;51042;49.696;10.808;2023-08-07T08:22:34;98171.44;;;12.26;100.00
64080;BME280;51042;49.696;10.808;2023-08-07T08:25:00;98174.16;;;12.17;100.00
64080;BME280;51042;49.696;10.808;2023-08-07T08:27:28;98182.72;;;12.19;100.00
64080;BME280;51042;49.696;10.808;2023-08-07T08:29:53;98191.31;;;12.21;100.00
64080;BME280;51042;49.696;10.808;2023-08-07T08:32:21;98186.69;;;12.18;100.00
64080;BME280;51042;49.696;10.808;2023-08-07T08:34:47;98194.00;;;12.12;100.00
64080;BME280;51042;49.696;10.808;2023-08-07T08:37:14;98186.34;;;12.16;100.00
64080;BME280;51042;49.696;10.808;2023-08-07T08:39:39;98194.50;;;12.19;100.00
64080;BME280;51042;49.696;10.808;2023-08-07T08:42:05;98198.78;;;12.20;100.00
64080;BME280;51042;49.696;10.808;2023-08-07T08:44:30;98194.34;;;12.23;100.00
64080;BME280;51042;49.696;10.808;2023-08-07T08:46:56;98208.00;;;12.26;100.00
64080;BME280;51042;49.696;10.808;2023-08-07T08:49:26;98206.63;;;12.31;100.00
64080;BME280;51042;49.696;10.808;2023-08-07T08:51:54;98207.25;;;12.35;100.00
64080;BME280;51042;49.696;10.808;2023-08-07T08:54:19;98206.38;;;12.47;100.00
64080;BME280;51042;49.696;10.808;2023-08-07T08:56:45;98215.75;;;12.59;100.00
64080;BME280;51042;49.696;10.808;2023-08-07T08:59:10;98219.00;;;12.66;100.00
64080;BME280;51042;49.696;10.808;2023-08-07T09:01:35;98223.50;;;12.82;100.00
64080;BME280;51042;49.696;10.808;2023-08-07T09:04:01;98227.34;;;12.85;100.00
64080;BME280;51042;49.696;10.808;2023-08-07T09:06:29;98227.84;;;12.92;100.00
64080;BME280;51042;49.696;10.808;2023-08-07T09:08:56;98224.78;;;12.99;100.00
64080;BME280;51042;49.696;10.808;2023-08-07T09:11:22;98220.28;;;12.84;100.00
64080;BME280;51042;49.696;10.808;2023-08-07T09:13:48;98225.63;;;12.69;100.00
64080;BME280;51042;49.696;10.808;2023-08-07T09:16:14;98223.25;;;12.58;100.00
64080;BME280;51042;49.696;10.808;2023-08-07T09:18:39;98232.25;;;12.50;100.00
64080;BME280;51042;49.696;10.808;2023-08-07T09:21:05;98238.19;;;12.48;100.00
64080;BME280;51042;49.696;10.808;2023-08-07T09:23:30;98232.38;;;12.46;100.00
64080;BME280;51042;49.696;10.808;2023-08-07T09:26:02;98234.53;;;12.51;100.00
64080;BME280;51042;49.696;10.808;2023-08-07T09:28:28;98241.41;;;12.47;100.00
64080;BME280;51042;49.696;10.808;2023-08-07T09:30:54;98240.25;;;12.57;100.00
64080;BME280;51042;49.696;10.808;2023-08-07T09:33:24;98238.72;;;12.65;100.00
64080;BME280;51042;49.696;10.808;2023-08-07T09:35:50;98246.28;;;12.83;100.00
64080;BME280;51042;49.696;10.808;2023-08-07T09:38:15;98260.91;;;13.01;100.00
64080;BME280;51042;49.696;10.808;2023-08-07T09:40:41;98267.19;;;13.02;100.00
64080;BME280;51042;49.696;10.808;2023-08-07T09:43:07;98265.97;;;13.03;100.00
64080;BME280;51042;49.696;10.808;2023-08-07T09:45:32;98267.41;;;13.17;100.00
64080;BME280;51042;49.696;10.808;2023-08-07T09:48:00;98260.38;;;13.16;100.00
64080;BME280;51042;49.696;10.808;2023-08-07T09:50:25;98255.47;;;13.20;100.00
64080;BME280;51042;49.696;10.808;2023-08-07T09:52:51;98262.84;;;13.41;100.00
64080;BME280;51042;49.696;10.808;2023-08-07T09:55:17;98276.38;;;13.57;100.00
64080;BME280;51042;49.696;10.808;2023-08-07T09:57:45;98271.91;;;13.51;100.00
64080;BME280;51042;49.696;10.808;2023-08-07T10:00:11;98270.38;;;13.49;100.00
64080;BME280;51042;49.696;10.808;2023-08-07T10:02:37;98271.75;;;13.54;100.00
64080;BME280;51042;49.696;10.808;2023-08-07T10:05:03;98273.31;;;13.64;100.00
64080;BME280;51042;49.696;10.808;2023-08-07T10:07:30;98263.94;;;13.71;100.00
64080;BME280;51042;49.696;10.808;2023-08-07T10:09:55;98271.78;;;13.63;100.00
64080;BME280;51042;49.696;10.808;2023-08-07T10:12:20;98282.16;;;13.59;100.00
64080;BME280;51042;49.696;10.808;2023-08-07T10:14:46;98275.16;;;13.58;100.00
64080;BME280;51042;49.696;10.808;2023-08-07T10:17:11;98286.47;;;13.60;100.00
64080;BME280;51042;49.696;10.808;2023-08-07T10:19:37;98285.72;;;13.69;100.00
64080;BME280;51042;49.696;10.808;2023-08-07T10:22:04;98284.50;;;13.70;100.00
64080;BME280;51042;49.696;10.808;2023-08-07T10:24:29;98284.50;;;13.79;100.00
64080;BME280;51042;49.696;10.808;2023-08-07T10:26:55;98296.75;;;13.96;100.00
64080;BME280;51042;49.696;10.808;2023-08-07T10:29:21;98291.69;;;14.04;100.00
64080;BME280;51042;49.696;10.808;2023-08-07T10:31:48;98294.91;;;14.02;100.00
64080;BME280;51042;49.696;10.808;2023-08-07T10:34:15;98298.75;;;13.96;100.00
64080;BME280;51042;49.696;10.808;2023-08-07T10:36:40;98307.03;;;14.05;100.00
64080;BME280;51042;49.696;10.808;2023-08-07T10:39:06;98307.66;;;14.00;100.00
64080;BME280;51042;49.696;10.808;2023-08-07T10:41:37;98302.88;;;14.18;100.00
64080;BME280;51042;49.696;10.808;2023-08-07T10:44:03;98313.59;;;14.25;100.00
64080;BME280;51042;49.696;10.808;2023-08-07T10:46:28;98305.19;;;14.38;100.00
64080;BME280;51042;49.696;10.808;2023-08-07T10:49:11;98311.16;;;14.46;100.00
64080;BME280;51042;49.696;10.808;2023-08-07T10:51:54;98304.38;;;14.56;100.00
64080;BME280;51042;49.696;10.808;2023-08-07T10:54:20;98316.22;;;14.47;100.00
64080;BME280;51042;49.696;10.808;2023-08-07T10:56:45;98309.31;;;14.43;100.00
64080;BME280;51042;49.696;10.808;2023-08-07T10:59:17;98299.03;;;14.52;100.00
64080;BME280;51042;49.696;10.808;2023-08-07T11:01:42;98301.47;;;14.59;100.00
64080;BME280;51042;49.696;10.808;2023-08-07T11:04:11;98299.03;;;14.52;100.00
64080;BME280;51042;49.696;10.808;2023-08-07T11:06:37;98315.56;;;14.61;100.00
64080;BME280;51042;49.696;10.808;2023-08-07T11:09:03;98299.44;;;14.69;100.00
64080;BME280;51042;49.696;10.808;2023-08-07T11:11:30;98305.41;;;14.77;100.00
64080;BME280;51042;49.696;10.808;2023-08-07T11:14:00;98311.34;;;14.93;100.00
64080;BME280;51042;49.696;10.808;2023-08-07T11:16:25;98317.16;;;14.95;100.00
64080;BME280;51042;49.696;10.808;2023-08-07T11:18:50;98316.34;;;15.13;100.00
64080;BME280;51042;49.696;10.808;2023-08-07T11:21:15;98313.84;;;15.15;100.00
64080;BME280;51042;49.696;10.808;2023-08-07T11:23:40;98319.50;;;15.21;100.00
64080;BME280;51042;49.696;10.808;2023-08-07T11:26:06;98317.53;;;15.54;100.00
64080;BME280;51042;49.696;10.808;2023-08-07T11:28:32;98320.06;;;15.67;100.00
64080;BME280;51042;49.696;10.808;2023-08-07T11:30:57;98322.78;;;15.43;100.00
64080;BME280;51042;49.696;10.808;2023-08-07T11:33:26;98328.34;;;15.34;100.00
64080;BME280;51042;49.696;10.808;2023-08-07T11:35:52;98328.44;;;15.48;100.00
64080;BME280;51042;49.696;10.808;2023-08-07T11:38:30;98323.75;;;15.64;100.00
64080;BME280;51042;49.696;10.808;2023-08-07T11:40:56;98308.69;;;15.65;100.00
64080;BME280;51042;49.696;10.808;2023-08-07T11:43:22;98320.06;;;15.34;100.00
64080;BME280;51042;49.696;10.808;2023-08-07T11:45:47;98315.66;;;15.51;100.00
64080;BME280;51042;49.696;10.808;2023-08-07T11:48:12;98324.41;;;15.49;100.00
64080;BME280;51042;49.696;10.808;2023-08-07T11:50:37;98313.94;;;15.30;100.00
64080;BME280;51042;49.696;10.808;2023-08-07T11:53:02;98324.44;;;15.17;100.00
64080;BME280;51042;49.696;10.808;2023-08-07T11:55:28;98325.84;;;15.12;100.00
64080;BME280;51042;49.696;10.808;2023-08-07T11:57:54;98329.59;;;14.91;100.00
64080;BME280;51042;49.696;10.808;2023-08-07T12:00:19;98319.94;;;14.86;100.00
64080;BME280;51042;49.696;10.808;2023-08-07T12:02:45;98343.81;;;14.56;100.00
64080;BME280;51042;49.696;10.808;2023-08-07T12:05:10;98333.53;;;14.57;100.00
64080;BME280;51042;49.696;10.808;2023-08-07T12:07:39;98348.41;;;14.59;100.00
64080;BME280;51042;49.696;10.808;2023-08-07T12:10:08;98345.63;;;14.68;100.00
64080;BME280;51042;49.696;10.808;2023-08-07T12:12:35;98340.28;;;14.65;100.00
64080;BME280;51042;49.696;10.808;2023-08-07T12:15:01;98353.63;;;14.48;100.00
64080;BME280;51042;49.696;10.808;2023-08-07T12:17:26;98344.75;;;14.35;100.00
64080;BME280;51042;49.696;10.808;2023-08-07T12:19:51;98349.81;;;14.27;100.00
64080;BME280;51042;49.696;10.808;2023-08-07T12:22:18;98354.69;;;14.14;100.00
64080;BME280;51042;49.696;10.808;2023-08-07T12:24:44;98367.16;;;14.46;100.00
64080;BME280;51042;49.696;10.808;2023-08-07T12:27:10;98341.72;;;14.93;100.00
64080;BME280;51042;49.696;10.808;2023-08-07T12:29:35;98357.13;;;14.76;100.00
64080;BME280;51042;49.696;10.808;2023-08-07T12:32:00;98365.09;;;14.83;100.00
64080;BME280;51042;49.696;10.808;2023-08-07T12:34:27;98365.59;;;14.54;100.00
64080;BME280;51042;49.696;10.808;2023-08-07T12:36:52;98359.59;;;14.01;100.00
64080;BME280;51042;49.696;10.808;2023-08-07T12:39:17;98359.72;;;13.88;100.00